Time,TemperatureF,DewpointF,PressureIn,WindDirection,WindDirectionDegrees,WindSpeedMPH,WindSpeedGustMPH,Humidity,HourlyPrecipIn,Conditions,Clouds,dailyrainin,SoftwareType,DateUTC
2013-05-27 00:00:00,54.4,47.6,29.84,SSE,158,0.4,0.4,78,0.00,,,0.00,WUHU216HW,2013-05-27 07:00:00,
2013-05-27 00:05:00,54.4,47.6,29.84,SSE,158,0.4,0.4,78,0.00,,,0.00,WUHU216HW,2013-05-27 07:05:00,
2013-05-27 00:59:00,53.8,47.9,29.83,South,180,2.2,2.2,80,0.00,,,0.00,WUHU216HW,2013-05-27 07:59:00,
2013-05-27 01:04:00,53.8,47.9,29.83,South,180,2.2,2.2,80,0.00,,,0.00,WUHU216HW,2013-05-27 08:04:00,
2013-05-27 01:59:00,53.5,48.2,29.82,SE,135,1.1,1.1,82,0.00,,,0.00,WUHU216HW,2013-05-27 08:59:00,
2013-05-27 02:04:00,53.5,48.2,29.82,SE,135,1.1,1.1,82,0.00,,,0.00,WUHU216HW,2013-05-27 09:04:00,
2013-05-27 02:59:00,52.6,47.9,29.80,SE,135,0.0,0.0,84,0.00,,,0.00,WUHU216HW,2013-05-27 09:59:00,
2013-05-27 03:04:00,52.6,47.9,29.80,SE,135,0.0,0.0,84,0.00,,,0.00,WUHU216HW,2013-05-27 10:04:00,
2013-05-27 03:59:00,51.5,47.1,29.77,SSE,158,0.2,0.2,85,0.00,,,0.00,WUHU216HW,2013-05-27 10:59:00,
2013-05-27 04:04:00,51.5,47.1,29.77,SSE,158,0.2,0.2,85,0.00,,,0.00,WUHU216HW,2013-05-27 11:04:00,
2013-05-27 05:59:00,50.6,46.8,29.72,SE,135,0.0,0.0,87,0.00,,,0.00,WUHU216HW,2013-05-27 12:59:00,
2013-05-27 06:04:00,50.6,46.8,29.72,SE,135,0.0,0.0,87,0.00,,,0.00,WUHU216HW,2013-05-27 13:04:00,
2013-05-27 06:59:00,51.5,48.3,29.71,SW,225,1.6,1.6,89,0.00,,,0.00,WUHU216HW,2013-05-27 13:59:00,
2013-05-27 07:04:00,51.5,48.3,29.71,SW,225,1.6,1.6,89,0.00,,,0.00,WUHU216HW,2013-05-27 14:04:00,
2013-05-27 07:59:00,52.7,49.2,29.68,SSW,203,0.4,0.4,88,0.00,,,0.00,WUHU216HW,2013-05-27 14:59:00,
2013-05-27 08:04:00,52.9,49.2,29.67,ESE,113,0.2,2.2,87,0.00,,,0.00,WUHU216HW,2013-05-27 15:04:00,
2013-05-27 08:09:00,52.9,49.4,29.67,SE,135,0.2,2.2,88,0.00,,,0.00,WUHU216HW,2013-05-27 15:09:00,
2013-05-27 08:14:00,52.9,49.2,29.67,ENE,68,0.4,2.2,87,0.00,,,0.00,WUHU216HW,2013-05-27 15:14:00,
2013-05-27 08:19:00,52.9,49.2,29.67,East,90,0.0,2.2,87,0.00,,,0.00,WUHU216HW,2013-05-27 15:19:00,
2013-05-27 08:24:00,52.7,49.0,29.67,SSW,203,0.0,0.7,87,0.00,,,0.00,WUHU216HW,2013-05-27 15:24:00,
2013-05-27 08:29:00,52.9,49.2,29.66,NE,45,0.0,0.4,87,0.00,,,0.00,WUHU216HW,2013-05-27 15:29:00,
2013-05-27 08:34:00,52.9,49.2,29.67,ESE,113,0.4,0.9,87,0.00,,,0.00,WUHU216HW,2013-05-27 15:34:00,
2013-05-27 08:39:00,52.9,49.2,29.66,ENE,68,0.2,1.1,87,0.00,,,0.00,WUHU216HW,2013-05-27 15:39:00,
2013-05-27 08:44:00,52.9,49.4,29.66,ENE,68,0.9,1.1,88,0.00,,,0.00,WUHU216HW,2013-05-27 15:44:00,
2013-05-27 08:49:00,53.1,49.6,29.66,South,180,0.4,2.0,88,0.00,,,0.00,WUHU216HW,2013-05-27 15:49:00,
2013-05-27 08:54:00,52.9,49.4,29.66,SSE,158,0.0,2.0,88,0.00,,,0.00,WUHU216HW,2013-05-27 15:54:00,
2013-05-27 08:59:00,52.9,49.4,29.66,SSE,158,0.7,1.1,88,0.00,,,0.00,WUHU216HW,2013-05-27 15:59:00,
2013-05-27 09:04:00,53.3,49.8,29.66,ESE,113,0.4,0.9,88,0.00,,,0.00,WUHU216HW,2013-05-27 16:04:00,
2013-05-27 09:09:00,53.5,50.0,29.65,SE,135,0.0,0.9,88,0.00,,,0.00,WUHU216HW,2013-05-27 16:09:00,
2013-05-27 09:14:00,53.6,50.1,29.65,East,90,0.4,0.4,88,0.00,,,0.00,WUHU216HW,2013-05-27 16:14:00,
2013-05-27 09:19:00,53.6,50.1,29.65,ESE,113,0.0,1.3,88,0.00,,,0.00,WUHU216HW,2013-05-27 16:19:00,
2013-05-27 09:24:00,53.6,50.1,29.65,SE,135,0.0,1.3,88,0.00,,,0.00,WUHU216HW,2013-05-27 16:24:00,
2013-05-27 09:29:00,54.0,50.5,29.64,SSE,158,1.3,1.3,88,0.00,,,0.00,WUHU216HW,2013-05-27 16:29:00,
2013-05-27 09:34:00,54.4,50.9,29.64,SW,225,0.2,1.3,88,0.00,,,0.00,WUHU216HW,2013-05-27 16:34:00,
2013-05-27 09:39:00,54.5,51.0,29.64,SE,135,0.4,1.8,88,0.00,,,0.00,WUHU216HW,2013-05-27 16:39:00,
2013-05-27 09:44:00,54.7,50.9,29.63,SSW,203,1.1,1.8,87,0.00,,,0.00,WUHU216HW,2013-05-27 16:44:00,
2013-05-27 09:49:00,54.7,50.9,29.63,South,180,0.4,2.2,87,0.00,,,0.00,WUHU216HW,2013-05-27 16:49:00,
2013-05-27 09:54:00,54.5,50.8,29.63,WSW,248,0.4,2.5,87,0.00,,,0.00,WUHU216HW,2013-05-27 16:54:00,
2013-05-27 09:59:00,54.5,50.8,29.63,NNW,338,2.0,2.5,87,0.00,,,0.00,WUHU216HW,2013-05-27 16:59:00,
2013-05-27 10:04:00,54.7,50.9,29.63,SW,225,0.9,2.0,87,0.00,,,0.00,WUHU216HW,2013-05-27 17:04:00,
2013-05-27 10:09:00,54.9,51.4,29.63,WNW,293,0.9,2.2,88,0.00,,,0.00,WUHU216HW,2013-05-27 17:09:00,
2013-05-27 10:14:00,54.9,51.4,29.63,WNW,293,0.9,2.2,88,0.00,,,0.00,WUHU216HW,2013-05-27 17:14:00,
2013-05-27 10:37:00,56.2,52.3,29.62,SSW,203,1.1,1.1,87,0.00,,,0.00,WUHU216HW,2013-05-27 17:37:00,
2013-05-27 10:42:00,56.5,52.4,29.62,SSE,158,0.0,1.1,86,0.00,,,0.00,WUHU216HW,2013-05-27 17:42:00,
2013-05-27 10:47:00,56.7,52.6,29.61,SE,135,2.0,2.0,86,0.00,,,0.00,WUHU216HW,2013-05-27 17:47:00,
2013-05-27 10:52:00,56.9,52.8,29.61,SSW,203,0.9,2.0,86,0.00,,,0.00,WUHU216HW,2013-05-27 17:52:00,
2013-05-27 10:57:00,56.9,52.8,29.61,SW,225,0.0,1.8,86,0.00,,,0.00,WUHU216HW,2013-05-27 17:57:00,
2013-05-27 11:02:00,57.1,52.2,29.61,South,180,1.1,1.8,84,0.00,,,0.00,WUHU216HW,2013-05-27 18:02:00,
2013-05-27 11:07:00,57.1,52.6,29.61,SSE,158,0.4,2.0,85,0.00,,,0.00,WUHU216HW,2013-05-27 18:07:00,
2013-05-27 11:12:00,57.2,52.7,29.61,South,180,0.4,2.2,85,0.00,,,0.00,WUHU216HW,2013-05-27 18:12:00,
2013-05-27 11:17:00,57.6,53.5,29.61,South,180,0.4,2.2,86,0.00,,,0.00,WUHU216HW,2013-05-27 18:17:00,
2013-05-27 11:22:00,57.8,53.3,29.61,SSE,158,3.4,3.4,85,0.00,,,0.00,WUHU216HW,2013-05-27 18:22:00,
2013-05-27 11:27:00,58.0,53.5,29.60,SE,135,2.5,3.4,85,0.00,,,0.00,WUHU216HW,2013-05-27 18:27:00,
2013-05-27 11:32:00,58.1,53.6,29.60,WSW,248,0.9,2.5,85,0.00,,,0.00,WUHU216HW,2013-05-27 18:32:00,
2013-05-27 11:37:00,58.3,53.8,29.60,NE,45,0.7,2.7,85,0.00,,,0.00,WUHU216HW,2013-05-27 18:37:00,
2013-05-27 11:42:00,58.5,53.6,29.60,NNW,338,0.4,2.7,84,0.00,,,0.00,WUHU216HW,2013-05-27 18:42:00,
2013-05-27 11:47:00,58.3,52.8,29.60,SSE,158,0.4,2.7,82,0.00,,,0.00,WUHU216HW,2013-05-27 18:47:00,
2013-05-27 11:52:00,58.5,53.4,29.60,SE,135,0.2,2.0,83,0.00,,,0.00,WUHU216HW,2013-05-27 18:52:00,
2013-05-27 11:57:00,58.7,53.8,29.60,NE,45,1.6,2.5,84,0.00,,,0.00,WUHU216HW,2013-05-27 18:57:00,
2013-05-27 12:02:00,58.7,53.8,29.60,NE,45,1.6,2.5,84,0.00,,,0.00,WUHU216HW,2013-05-27 19:02:00,
2013-05-27 12:07:00,58.9,53.7,29.60,SW,225,0.9,1.8,83,0.00,,,0.00,WUHU216HW,2013-05-27 19:07:00,
2013-05-27 12:12:00,58.9,53.7,29.60,South,180,2.0,3.4,83,0.00,,,0.00,WUHU216HW,2013-05-27 19:12:00,
2013-05-27 12:17:00,58.7,53.2,29.60,SSW,203,1.1,4.5,82,0.00,,,0.00,WUHU216HW,2013-05-27 19:17:00,
2013-05-27 12:22:00,58.7,53.2,29.60,SE,135,4.0,4.5,82,0.00,,,0.00,WUHU216HW,2013-05-27 19:22:00,
2013-05-27 12:27:00,58.7,53.6,29.60,SE,135,2.5,4.0,83,0.00,,,0.00,WUHU216HW,2013-05-27 19:27:00,
2013-05-27 12:32:00,58.7,53.6,29.60,SE,135,2.5,2.7,83,0.00,,,0.00,WUHU216HW,2013-05-27 19:32:00,
2013-05-27 13:59:00,58.3,53.5,29.59,SE,135,0.2,0.2,84,0.00,,,0.00,WUHU216HW,2013-05-27 20:59:00,
2013-05-27 14:04:00,58.3,53.8,29.59,East,90,0.0,1.8,85,0.00,,,0.00,WUHU216HW,2013-05-27 21:04:00,
2013-05-27 14:09:00,58.3,53.8,29.59,SE,135,0.4,1.8,85,0.00,,,0.00,WUHU216HW,2013-05-27 21:09:00,
2013-05-27 14:14:00,58.3,53.8,29.59,ENE,68,1.1,2.9,85,0.00,,,0.00,WUHU216HW,2013-05-27 21:14:00,
2013-05-27 14:19:00,58.3,54.2,29.59,WNW,293,2.2,2.9,86,0.00,,,0.00,WUHU216HW,2013-05-27 21:19:00,
2013-05-27 14:24:00,58.3,54.2,29.59,SE,135,0.9,2.2,86,0.00,,,0.00,WUHU216HW,2013-05-27 21:24:00,
2013-05-27 14:29:00,58.3,54.2,29.59,East,90,1.3,2.5,86,0.00,,,0.00,WUHU216HW,2013-05-27 21:29:00,
2013-05-27 14:34:00,58.0,53.5,29.60,South,180,2.9,4.5,85,0.00,,,0.00,WUHU216HW,2013-05-27 21:34:00,
2013-05-27 14:39:00,58.0,53.5,29.60,ESE,113,1.8,4.5,85,0.00,,,0.00,WUHU216HW,2013-05-27 21:39:00,
2013-05-27 14:44:00,57.8,53.7,29.60,ENE,68,0.0,1.8,86,0.00,,,0.00,WUHU216HW,2013-05-27 21:44:00,
2013-05-27 14:49:00,57.8,53.7,29.60,SE,135,0.0,2.2,86,0.00,,,0.00,WUHU216HW,2013-05-27 21:49:00,
2013-05-27 14:54:00,57.8,53.7,29.60,South,180,0.4,2.2,86,0.00,,,0.00,WUHU216HW,2013-05-27 21:54:00,
2013-05-27 14:59:00,57.6,53.7,29.60,SSW,203,1.3,2.5,87,0.00,,,0.00,WUHU216HW,2013-05-27 21:59:00,
2013-05-27 15:04:00,57.6,53.5,29.60,SE,135,0.2,2.5,86,0.00,,,0.00,WUHU216HW,2013-05-27 22:04:00,
2013-05-27 15:09:00,57.6,53.1,29.60,SSE,158,0.9,2.9,85,0.00,,,0.00,WUHU216HW,2013-05-27 22:09:00,
2013-05-27 15:14:00,57.8,53.7,29.60,SSE,158,1.3,3.1,86,0.00,,,0.00,WUHU216HW,2013-05-27 22:14:00,
2013-05-27 15:19:00,58.0,54.1,29.61,ENE,68,0.7,3.1,87,0.00,,,0.00,WUHU216HW,2013-05-27 22:19:00,
2013-05-27 15:24:00,58.0,54.1,29.61,South,180,1.8,1.8,87,0.00,,,0.00,WUHU216HW,2013-05-27 22:24:00,
2013-05-27 15:29:00,58.0,53.8,29.61,ESE,113,0.4,1.8,86,0.00,,,0.00,WUHU216HW,2013-05-27 22:29:00,
2013-05-27 15:34:00,58.0,53.8,29.61,SE,135,0.4,1.8,86,0.00,,,0.00,WUHU216HW,2013-05-27 22:34:00,
2013-05-27 15:39:00,58.0,53.8,29.61,SSE,158,2.5,2.5,86,0.00,,,0.00,WUHU216HW,2013-05-27 22:39:00,
2013-05-27 15:44:00,57.8,53.7,29.61,ESE,113,0.0,2.5,86,0.00,,,0.00,WUHU216HW,2013-05-27 22:44:00,
2013-05-27 15:49:00,57.8,53.9,29.61,East,90,0.4,1.8,87,0.00,,,0.00,WUHU216HW,2013-05-27 22:49:00,
2013-05-27 15:54:00,57.8,53.9,29.61,SE,135,0.7,1.8,87,0.00,,,0.00,WUHU216HW,2013-05-27 22:54:00,
2013-05-27 15:59:00,58.0,54.1,29.61,ENE,68,0.4,1.8,87,0.00,,,0.00,WUHU216HW,2013-05-27 22:59:00,
2013-05-27 16:04:00,58.0,54.5,29.61,WSW,248,1.1,1.8,88,0.00,,,0.00,WUHU216HW,2013-05-27 23:04:00,
2013-05-27 16:09:00,58.0,54.1,29.61,ENE,68,0.2,1.8,87,0.00,,,0.00,WUHU216HW,2013-05-27 23:09:00,
2013-05-27 16:14:00,58.0,54.1,29.61,ENE,68,0.0,1.8,87,0.00,,,0.00,WUHU216HW,2013-05-27 23:14:00,
2013-05-27 16:19:00,57.8,53.9,29.61,North,0,0.0,1.1,87,0.00,,,0.00,WUHU216HW,2013-05-27 23:19:00,
2013-05-27 16:24:00,57.6,54.1,29.60,North,0,0.0,1.1,88,0.00,,,0.00,WUHU216HW,2013-05-27 23:24:00,
2013-05-27 16:29:00,57.6,54.1,29.60,SSW,203,0.2,0.4,88,0.00,,,0.00,WUHU216HW,2013-05-27 23:29:00,
2013-05-27 16:34:00,57.6,54.1,29.60,East,90,0.2,2.0,88,0.00,,,0.00,WUHU216HW,2013-05-27 23:34:00,
2013-05-27 16:39:00,57.8,53.9,29.60,SSE,158,1.1,2.0,87,0.00,,,0.00,WUHU216HW,2013-05-27 23:39:00,
2013-05-27 16:44:00,58.0,54.5,29.60,East,90,0.0,1.3,88,0.00,,,0.00,WUHU216HW,2013-05-27 23:44:00,
2013-05-27 16:49:00,58.0,54.1,29.60,SSW,203,1.6,1.8,87,0.00,,,0.00,WUHU216HW,2013-05-27 23:49:00,
2013-05-27 16:54:00,58.1,54.3,29.60,SSW,203,0.0,1.8,87,0.00,,,0.00,WUHU216HW,2013-05-27 23:54:00,
2013-05-27 16:59:00,58.7,54.8,29.59,SE,135,0.0,2.2,87,0.00,,,0.00,WUHU216HW,2013-05-27 23:59:00,
2013-05-27 17:04:00,59.0,55.2,29.59,SSW,203,2.5,2.5,87,0.00,,,0.00,WUHU216HW,2013-05-28 00:04:00,
2013-05-27 17:09:00,59.0,54.9,29.59,SW,225,1.6,2.5,86,0.00,,,0.00,WUHU216HW,2013-05-28 00:09:00,
2013-05-27 17:14:00,59.2,54.4,29.59,SE,135,1.1,2.7,84,0.00,,,0.00,WUHU216HW,2013-05-28 00:14:00,
2013-05-27 17:19:00,59.0,54.5,29.60,SSW,203,2.7,2.7,85,0.00,,,0.00,WUHU216HW,2013-05-28 00:19:00,
2013-05-27 17:24:00,58.9,54.4,29.60,SE,135,2.2,2.7,85,0.00,,,0.00,WUHU216HW,2013-05-28 00:24:00,
2013-05-27 17:29:00,58.5,54.0,29.59,SSW,203,1.1,3.1,85,0.00,,,0.00,WUHU216HW,2013-05-28 00:29:00,
2013-05-27 17:34:00,58.0,53.8,29.60,ESE,113,0.4,3.4,86,0.00,,,0.00,WUHU216HW,2013-05-28 00:34:00,
2013-05-27 17:39:00,57.8,53.7,29.59,SE,135,0.4,3.4,86,0.00,,,0.00,WUHU216HW,2013-05-28 00:39:00,
2013-05-27 17:44:00,57.8,53.9,29.59,SE,135,0.4,1.6,87,0.00,,,0.00,WUHU216HW,2013-05-28 00:44:00,
2013-05-27 17:49:00,57.8,53.9,29.59,SE,135,1.8,1.8,87,0.00,,,0.00,WUHU216HW,2013-05-28 00:49:00,
2013-05-27 17:54:00,58.0,54.1,29.59,SSW,203,1.8,1.8,87,0.00,,,0.00,WUHU216HW,2013-05-28 00:54:00,
2013-05-27 17:59:00,58.1,54.3,29.59,ESE,113,0.4,1.8,87,0.00,,,0.00,WUHU216HW,2013-05-28 00:59:00,
2013-05-27 18:04:00,58.3,54.5,29.59,NE,45,1.1,1.6,87,0.00,,,0.00,WUHU216HW,2013-05-28 01:04:00,
2013-05-27 18:09:00,58.5,54.4,29.59,SE,135,1.1,2.0,86,0.00,,,0.00,WUHU216HW,2013-05-28 01:09:00,
2013-05-27 18:14:00,58.3,54.2,29.59,WSW,248,2.0,2.5,86,0.00,,,0.00,WUHU216HW,2013-05-28 01:14:00,
2013-05-27 18:19:00,58.0,53.8,29.60,SSE,158,1.6,2.5,86,0.00,,,0.00,WUHU216HW,2013-05-28 01:19:00,
2013-05-27 18:24:00,57.8,53.9,29.60,ESE,113,0.0,2.5,87,0.00,,,0.00,WUHU216HW,2013-05-28 01:24:00,
2013-05-27 18:29:00,57.6,53.7,29.60,SSE,158,1.8,4.0,87,0.00,,,0.00,WUHU216HW,2013-05-28 01:29:00,
2013-05-27 18:34:00,57.6,53.7,29.60,ESE,113,1.1,4.0,87,0.00,,,0.00,WUHU216HW,2013-05-28 01:34:00,
2013-05-27 18:39:00,57.6,53.7,29.59,SE,135,1.3,1.8,87,0.00,,,0.00,WUHU216HW,2013-05-28 01:39:00,
2013-05-27 18:44:00,57.6,53.7,29.59,SSW,203,1.1,2.5,87,0.00,,,0.00,WUHU216HW,2013-05-28 01:44:00,
2013-05-27 18:49:00,57.4,53.6,29.60,South,180,3.1,3.1,87,0.00,,,0.00,WUHU216HW,2013-05-28 01:49:00,
2013-05-27 18:54:00,57.2,53.1,29.60,SSE,158,0.9,3.1,86,0.00,,,0.00,WUHU216HW,2013-05-28 01:54:00,
2013-05-27 18:59:00,57.1,52.9,29.60,SE,135,1.6,3.4,86,0.00,,,0.00,WUHU216HW,2013-05-28 01:59:00,
2013-05-27 19:04:00,56.9,52.8,29.61,ESE,113,0.4,3.4,86,0.00,,,0.00,WUHU216HW,2013-05-28 02:04:00,
2013-05-27 19:09:00,56.9,52.8,29.61,SSW,203,0.0,2.5,86,0.00,,,0.00,WUHU216HW,2013-05-28 02:09:00,
2013-05-27 19:14:00,56.5,52.4,29.61,SW,225,0.2,2.0,86,0.00,,,0.00,WUHU216HW,2013-05-28 02:14:00,
2013-05-27 19:19:00,56.5,52.7,29.61,WSW,248,0.7,0.7,87,0.00,,,0.00,WUHU216HW,2013-05-28 02:19:00,
2013-05-27 19:24:00,56.5,52.7,29.61,WSW,248,0.0,0.7,87,0.00,,,0.00,WUHU216HW,2013-05-28 02:24:00,
2013-05-27 19:29:00,56.5,52.7,29.61,ENE,68,1.8,1.8,87,0.00,,,0.00,WUHU216HW,2013-05-28 02:29:00,
2013-05-27 19:34:00,56.3,52.5,29.61,SSW,203,1.8,2.7,87,0.00,,,0.00,WUHU216HW,2013-05-28 02:34:00,
2013-05-27 19:39:00,56.2,52.3,29.62,SE,135,0.4,2.7,87,0.00,,,0.00,WUHU216HW,2013-05-28 02:39:00,
2013-05-27 19:44:00,56.0,52.1,29.62,SE,135,1.1,2.0,87,0.00,,,0.00,WUHU216HW,2013-05-28 02:44:00,
2013-05-27 19:49:00,55.8,52.3,29.62,ESE,113,1.6,3.4,88,0.00,,,0.00,WUHU216HW,2013-05-28 02:49:00,
2013-05-27 19:54:00,55.8,52.6,29.62,SSW,203,1.1,3.4,89,0.00,,,0.00,WUHU216HW,2013-05-28 02:54:00,
2013-05-27 19:59:00,55.4,52.2,29.62,SE,135,2.5,4.0,89,0.00,,,0.00,WUHU216HW,2013-05-28 02:59:00,
2013-05-27 20:04:00,55.4,52.2,29.62,SE,135,0.4,4.0,89,0.00,,,0.00,WUHU216HW,2013-05-28 03:04:00,
2013-05-27 20:09:00,55.4,52.2,29.62,SSE,158,0.2,2.5,89,0.00,,,0.00,WUHU216HW,2013-05-28 03:09:00,
2013-05-27 20:14:00,55.4,52.2,29.62,SE,135,0.2,2.7,89,0.00,,,0.00,WUHU216HW,2013-05-28 03:14:00,
2013-05-27 20:19:00,55.4,52.2,29.62,SSE,158,0.7,2.7,89,0.00,,,0.00,WUHU216HW,2013-05-28 03:19:00,
2013-05-27 20:24:00,55.4,52.2,29.62,South,180,0.4,1.8,89,0.00,,,0.00,WUHU216HW,2013-05-28 03:24:00,
2013-05-27 20:29:00,55.3,52.0,29.62,SE,135,1.3,1.3,89,0.00,,,0.00,WUHU216HW,2013-05-28 03:29:00,
2013-05-27 20:34:00,55.3,52.0,29.62,SSE,158,0.7,1.3,89,0.00,,,0.00,WUHU216HW,2013-05-28 03:34:00,
2013-05-27 20:39:00,55.3,52.0,29.62,SE,135,1.1,1.3,89,0.00,,,0.00,WUHU216HW,2013-05-28 03:39:00,
2013-05-27 20:44:00,55.3,52.0,29.62,SE,135,1.1,1.1,89,0.00,,,0.00,WUHU216HW,2013-05-28 03:44:00,
2013-05-27 20:49:00,55.1,51.8,29.62,SE,135,0.2,1.1,89,0.00,,,0.00,WUHU216HW,2013-05-28 03:49:00,
2013-05-27 20:54:00,55.1,51.8,29.62,SSE,158,0.4,1.1,89,0.00,,,0.00,WUHU216HW,2013-05-28 03:54:00,
2013-05-27 20:59:00,55.1,51.8,29.63,SSE,158,1.1,1.3,89,0.00,,,0.00,WUHU216HW,2013-05-28 03:59:00,
2013-05-27 21:01:00,55.1,52.2,29.62,ESE,113,1.1,1.3,90,0.00,,,0.00,WUHU216HW,2013-05-28 04:01:00,
2013-05-27 21:06:00,55.1,51.8,29.63,SE,135,0.4,1.8,89,0.00,,,0.00,WUHU216HW,2013-05-28 04:06:00,
2013-05-27 21:11:00,55.1,52.2,29.63,SE,135,0.4,1.8,90,0.00,,,0.00,WUHU216HW,2013-05-28 04:11:00,
2013-05-27 21:16:00,55.1,52.2,29.63,SSW,203,1.8,1.8,90,0.00,,,0.00,WUHU216HW,2013-05-28 04:16:00,
2013-05-27 21:21:00,55.1,52.2,29.63,SE,135,0.0,1.8,90,0.00,,,0.00,WUHU216HW,2013-05-28 04:21:00,
2013-05-27 21:26:00,55.1,52.2,29.63,SE,135,1.3,1.8,90,0.00,,,0.00,WUHU216HW,2013-05-28 04:26:00,
2013-05-27 21:31:00,54.9,52.0,29.63,SE,135,1.1,1.8,90,0.00,,,0.00,WUHU216HW,2013-05-28 04:31:00,
2013-05-27 21:36:00,54.9,52.3,29.63,ENE,68,0.4,2.7,91,0.00,,,0.00,WUHU216HW,2013-05-28 04:36:00,
2013-05-27 21:41:00,54.7,51.8,29.63,South,180,2.2,3.6,90,0.00,,,0.00,WUHU216HW,2013-05-28 04:41:00,
2013-05-27 21:46:00,54.7,51.8,29.63,SW,225,2.5,3.6,90,0.00,,,0.00,WUHU216HW,2013-05-28 04:46:00,
2013-05-27 21:51:00,54.7,52.1,29.64,SSW,203,2.5,2.5,91,0.00,,,0.00,WUHU216HW,2013-05-28 04:51:00,
2013-05-27 21:56:00,54.7,51.8,29.64,WSW,248,3.4,3.4,90,0.00,,,0.00,WUHU216HW,2013-05-28 04:56:00,
2013-05-27 22:01:00,54.7,51.8,29.64,SE,135,2.0,3.4,90,0.00,,,0.00,WUHU216HW,2013-05-28 05:01:00,
2013-05-27 22:06:00,54.7,51.8,29.64,ESE,113,0.7,2.7,90,0.00,,,0.00,WUHU216HW,2013-05-28 05:06:00,
2013-05-27 22:11:00,54.7,51.8,29.64,SSW,203,0.9,2.7,90,0.00,,,0.00,WUHU216HW,2013-05-28 05:11:00,
2013-05-27 22:16:00,54.7,51.8,29.64,SE,135,0.2,1.6,90,0.00,,,0.00,WUHU216HW,2013-05-28 05:16:00,
2013-05-27 22:21:00,54.7,51.8,29.64,SSE,158,0.9,1.8,90,0.00,,,0.00,WUHU216HW,2013-05-28 05:21:00,
2013-05-27 22:26:00,54.7,51.8,29.65,SE,135,0.2,1.8,90,0.00,,,0.00,WUHU216HW,2013-05-28 05:26:00,
2013-05-27 22:31:00,54.5,51.7,29.65,SE,135,1.1,1.6,90,0.00,,,0.00,WUHU216HW,2013-05-28 05:31:00,
2013-05-27 22:36:00,54.5,51.7,29.65,SSW,203,0.0,1.1,90,0.00,,,0.00,WUHU216HW,2013-05-28 05:36:00,
2013-05-27 22:41:00,54.5,51.7,29.65,South,180,1.1,2.5,90,0.00,,,0.00,WUHU216HW,2013-05-28 05:41:00,
2013-05-27 22:46:00,54.5,51.7,29.65,SSW,203,0.4,2.5,90,0.00,,,0.00,WUHU216HW,2013-05-28 05:46:00,
2013-05-27 22:51:00,54.4,51.8,29.65,SSE,158,0.9,1.6,91,0.00,,,0.00,WUHU216HW,2013-05-28 05:51:00,
2013-05-27 22:56:00,54.4,51.8,29.65,SW,225,0.4,1.6,91,0.00,,,0.00,WUHU216HW,2013-05-28 05:56:00,
2013-05-27 23:01:00,54.4,51.5,29.65,SW,225,0.4,1.6,90,0.00,,,0.00,WUHU216HW,2013-05-28 06:01:00,
2013-05-27 23:06:00,54.4,51.8,29.65,SW,225,1.6,1.6,91,0.00,,,0.00,WUHU216HW,2013-05-28 06:06:00,
2013-05-27 23:11:00,54.4,51.8,29.65,South,180,0.4,2.5,91,0.00,,,0.00,WUHU216HW,2013-05-28 06:11:00,
2013-05-27 23:16:00,54.4,51.5,29.65,South,180,1.1,2.5,90,0.00,,,0.00,WUHU216HW,2013-05-28 06:16:00,
2013-05-27 23:21:00,54.4,51.5,29.65,SW,225,1.1,1.8,90,0.00,,,0.00,WUHU216HW,2013-05-28 06:21:00,
2013-05-27 23:26:00,54.2,51.3,29.65,SW,225,1.1,1.8,90,0.00,,,0.00,WUHU216HW,2013-05-28 06:26:00,
2013-05-27 23:31:00,54.2,51.3,29.65,SW,225,1.1,1.6,90,0.00,,,0.00,WUHU216HW,2013-05-28 06:31:00,
2013-05-27 23:36:00,54.2,51.3,29.65,SSW,203,0.7,1.1,90,0.00,,,0.00,WUHU216HW,2013-05-28 06:36:00,
2013-05-27 23:41:00,54.2,51.3,29.66,WSW,248,0.0,0.7,90,0.00,,,0.00,WUHU216HW,2013-05-28 06:41:00,
2013-05-27 23:46:00,54.2,51.3,29.66,WSW,248,0.4,1.6,90,0.00,,,0.00,WUHU216HW,2013-05-28 06:46:00,
2013-05-27 23:51:00,54.2,51.3,29.66,SSE,158,1.8,1.8,90,0.00,,,0.00,WUHU216HW,2013-05-28 06:51:00,
2013-05-27 23:56:00,54.0,51.1,29.66,ESE,113,0.2,1.8,90,0.00,,,0.00,WUHU216HW,2013-05-28 06:56:00,